Terminal Aerodrome Forecast
Issued by NWS

Home | Current Version | Previous Version | Text Only | Print | Product List | Glossary On
Versions: 1 2 3 4 5 6 7 8 9 10 11 12 13 14 15 16 17 18 19 20 21 22
812
FTUS43 KGRR 032340
TAFBTL
TAF
KBTL 032340Z 0400/0424 28007KT P6SM BKN150
     FM040900 21006KT 6SM -RA OVC025
     FM041000 23006KT 4SM -RA BR OVC015
     FM041100 25006KT 2SM -RA BR OVC007
     FM041400 35010G20KT P6SM -RA OVC015
     FM041800 33016G22KT 6SM -RA BR OVC007=

USA.gov is the U.S. government's official web portal to all federal, state and local government web resources and services.